createdAt,value
2018-09-27T12:47:04.178Z,3.70
2018-09-27T12:49:38.179Z,3.50
2018-09-27T12:52:18.801Z,3.40
2018-09-27T12:54:53.581Z,3.93
2018-09-27T12:57:27.902Z,3.70
2018-09-27T13:00:00.009Z,3.42
2018-09-27T13:02:32.150Z,3.47
2018-09-27T13:05:24.235Z,3.60
2018-09-27T13:08:08.411Z,3.42
2018-09-27T13:10:40.159Z,3.52
2018-09-27T13:13:17.728Z,3.20
2018-09-27T13:15:52.785Z,3.65
2018-09-27T13:18:32.322Z,3.52
2018-09-27T13:21:12.850Z,3.60
2018-09-27T13:23:46.143Z,3.50
2018-09-27T13:26:23.127Z,3.40
2018-09-27T13:29:00.712Z,3.02
2018-09-27T13:31:34.806Z,3.25
2018-09-27T13:34:12.891Z,3.37
2018-09-27T13:36:47.184Z,3.02
2018-09-27T13:39:22.988Z,3.27
2018-09-27T13:41:55.137Z,2.98
2018-09-27T13:44:31.786Z,3.00
2018-09-27T13:47:04.881Z,3.00
2018-09-27T13:49:39.436Z,3.67
2018-09-27T13:52:13.833Z,3.50
2018-09-27T13:54:47.407Z,3.20
2018-09-27T13:57:20.129Z,2.77
2018-09-27T13:59:54.194Z,3.30
2018-09-27T14:02:31.289Z,2.52
2018-09-27T14:05:10.844Z,2.70
2018-09-27T14:07:46.307Z,2.50
2018-09-27T14:10:19.487Z,2.35
2018-09-27T14:12:53.652Z,2.25
2018-09-27T14:15:28.495Z,2.80
2018-09-27T14:18:03.683Z,2.17
2018-09-27T14:20:39.176Z,2.40
2018-09-27T14:23:14.649Z,2.42
2018-09-27T14:25:49.293Z,2.15
2018-09-27T14:28:25.914Z,1.92
2018-09-27T14:31:03.494Z,2.27
2018-09-27T14:33:37.829Z,1.92
2018-09-27T14:36:11.199Z,1.92
2018-09-27T14:38:42.500Z,2.20
2018-09-27T14:41:13.858Z,2.00
2018-09-27T14:43:45.381Z,1.90
2018-09-27T14:46:16.682Z,2.40
2018-09-27T14:48:47.949Z,2.45
2018-09-27T14:51:20.181Z,2.30
2018-09-27T14:53:51.414Z,2.33
2018-09-27T14:56:22.683Z,2.20
2018-09-27T14:58:54.165Z,2.25
2018-09-27T15:01:25.760Z,2.40
2018-09-27T15:03:57.334Z,2.50
2018-09-27T15:06:28.614Z,2.70
2018-09-27T15:09:00.055Z,2.70
2018-09-27T15:11:31.576Z,2.33
2018-09-27T15:14:02.879Z,2.30
2018-09-27T15:16:33.494Z,2.17
2018-09-27T15:19:04.232Z,2.43
2018-09-27T15:21:35.074Z,2.80
2018-09-27T15:24:06.636Z,2.63
2018-09-27T15:26:37.409Z,2.00
2018-09-27T15:29:08.084Z,2.47
2018-09-27T15:31:39.613Z,2.90
2018-09-27T15:34:10.375Z,3.37
2018-09-27T15:36:42.564Z,3.03
2018-09-27T15:39:13.184Z,2.83
2018-09-27T15:41:43.989Z,2.33
2018-09-27T15:44:14.768Z,2.33
2018-09-27T15:46:45.477Z,2.67
2018-09-27T15:49:16.553Z,2.40
2018-09-27T15:51:48.722Z,2.30
2018-09-27T15:54:19.321Z,2.40
2018-09-27T15:56:50.033Z,2.10
2018-09-27T15:59:21.070Z,2.20
2018-09-27T16:01:51.757Z,2.17
2018-09-27T16:04:22.684Z,2.40
2018-09-27T16:06:53.966Z,2.10
2018-09-27T16:09:25.963Z,2.67
2018-09-27T16:11:56.652Z,2.57
2018-09-27T16:14:27.204Z,2.43
2018-09-27T16:16:57.956Z,2.30
2018-09-27T16:19:28.769Z,2.30
2018-09-27T16:22:07.179Z,2.30
2018-09-27T16:24:38.141Z,2.53
2018-09-27T16:27:09.240Z,1.97
2018-09-27T16:29:40.372Z,2.40
2018-09-27T16:32:11.528Z,2.37
2018-09-27T16:34:43.507Z,2.40
2018-09-27T16:37:14.435Z,2.47
2018-09-27T16:39:45.304Z,2.37
2018-09-27T16:42:15.883Z,2.50
2018-09-27T16:44:46.803Z,2.50
2018-09-27T16:47:18.161Z,2.57
2018-09-27T16:49:48.847Z,2.57
2018-09-27T16:52:19.765Z,2.33
2018-09-27T16:54:50.516Z,2.27
2018-09-27T16:57:21.210Z,2.20
2018-09-27T16:59:52.017Z,2.07
2018-09-27T17:02:22.733Z,2.10
2018-09-27T17:04:53.617Z,2.13
2018-09-27T17:07:24.367Z,2.53
2018-09-27T17:09:55.354Z,2.50
2018-09-27T17:12:26.471Z,2.93
2018-09-27T17:14:57.071Z,2.30
2018-09-27T17:17:27.791Z,2.33
2018-09-27T17:20:01.607Z,2.80
2018-09-27T17:22:32.326Z,3.13
2018-09-27T17:25:03.177Z,2.57
2018-09-27T17:27:33.979Z,2.70
2018-09-27T17:30:05.533Z,2.87
2018-09-27T17:32:36.433Z,2.43
2018-09-27T17:35:07.718Z,3.10
2018-09-27T17:37:39.119Z,2.83
2018-09-27T17:40:09.981Z,2.67
2018-09-27T17:42:41.230Z,2.70
2018-09-27T17:45:12.046Z,2.20
2018-09-27T17:47:42.951Z,3.00
2018-09-27T17:50:13.773Z,11.27
2018-09-27T17:52:44.665Z,5.57
2018-09-27T17:55:15.580Z,3.50
2018-09-27T17:57:46.255Z,3.43
2018-09-27T18:00:17.439Z,3.20
2018-09-27T18:02:48.372Z,3.17
2018-09-27T18:05:19.588Z,5.17
2018-09-27T18:07:55.327Z,4.17
2018-09-27T18:10:26.117Z,4.03
2018-09-27T18:12:57.133Z,4.63
2018-09-27T18:15:28.261Z,4.00
2018-09-27T18:17:59.426Z,4.90
2018-09-27T18:20:30.161Z,4.73
2018-09-27T18:23:01.008Z,3.43
2018-09-27T18:25:31.765Z,3.80
2018-09-27T18:28:03.115Z,3.23
2018-09-27T18:30:33.913Z,3.90
2018-09-27T18:33:05.872Z,5.63
2018-09-27T18:35:36.610Z,5.97
2018-09-27T18:38:07.857Z,4.30
2018-09-27T18:40:38.835Z,4.43
2018-09-27T18:43:09.626Z,4.60
2018-09-27T18:45:40.615Z,3.77
2018-09-27T18:48:12.386Z,4.17
2018-09-27T18:50:43.475Z,8.50
2018-09-27T18:53:14.316Z,5.97
2018-09-27T18:55:45.185Z,4.70
2018-09-27T18:58:15.859Z,5.33
2018-09-27T19:00:46.673Z,3.33
2018-09-27T19:03:17.327Z,2.80
2018-09-27T19:05:48.633Z,3.20
2018-09-27T19:08:19.372Z,2.40
2018-09-27T19:10:50.294Z,2.80
2018-09-27T19:13:21.079Z,2.47
2018-09-27T19:15:54.363Z,2.40
2018-09-27T19:18:25.674Z,2.50
2018-09-27T19:20:56.636Z,2.47
2018-09-27T19:23:27.260Z,2.57
2018-09-27T19:25:57.880Z,2.40
2018-09-27T19:28:28.557Z,2.57
2018-09-27T19:30:59.298Z,2.27
2018-09-27T19:33:30.510Z,2.47
2018-09-27T19:36:01.385Z,2.33
2018-09-27T19:38:32.135Z,2.10
2018-09-27T19:41:03.066Z,2.13
2018-09-27T19:43:34.016Z,2.30
2018-09-27T19:46:04.713Z,2.30
2018-09-27T19:48:35.820Z,2.30
2018-09-27T19:51:07.764Z,2.63
2018-09-27T19:53:39.256Z,2.53
2018-09-27T19:56:10.608Z,2.33
2018-09-27T19:58:41.478Z,2.50
2018-09-27T20:01:12.173Z,2.30
2018-09-27T20:03:43.278Z,2.17
2018-09-27T20:06:14.430Z,2.40
2018-09-27T20:08:45.526Z,2.50
2018-09-27T20:11:16.390Z,2.70
2018-09-27T20:13:47.484Z,2.80
2018-09-27T20:16:18.372Z,2.50
2018-09-27T20:18:49.628Z,2.60
2018-09-27T20:21:20.959Z,2.50
2018-09-27T20:23:51.963Z,2.47
2018-09-27T20:26:22.661Z,2.80
2018-09-27T20:28:53.518Z,2.63
2018-09-27T20:31:24.499Z,2.37
2018-09-27T20:33:55.762Z,2.77
2018-09-27T20:36:27.259Z,2.47
2018-09-27T20:38:58.521Z,2.40
2018-09-27T20:41:29.279Z,2.30
2018-09-27T20:44:00.045Z,2.57
2018-09-27T20:46:31.168Z,2.20
2018-09-27T20:49:01.942Z,2.60
2018-09-27T20:51:32.953Z,3.10
2018-09-27T20:54:03.955Z,2.10
2018-09-27T20:56:34.857Z,2.97
2018-09-27T20:59:05.685Z,2.77
2018-09-27T21:01:36.268Z,2.53
2018-09-27T21:04:07.213Z,2.50
2018-09-27T21:06:38.576Z,3.33
2018-09-27T21:09:12.208Z,2.67
2018-09-27T21:11:43.227Z,2.63
2018-09-27T21:14:13.944Z,3.17
2018-09-27T21:16:45.023Z,3.33
2018-09-27T21:19:15.690Z,3.13
2018-09-27T21:21:46.276Z,3.20
2018-09-27T21:24:17.099Z,3.10
2018-09-27T21:26:47.736Z,3.00
2018-09-27T21:29:18.408Z,3.23
2018-09-27T21:31:49.300Z,3.20
2018-09-27T21:34:19.904Z,2.73
2018-09-27T21:36:50.945Z,3.60
2018-09-27T21:39:21.722Z,3.10
2018-09-27T21:41:52.457Z,2.90
2018-09-27T21:44:23.310Z,3.27
2018-09-27T21:46:54.144Z,2.77
2018-09-27T21:49:27.044Z,3.10
2018-09-27T21:51:58.070Z,3.10
2018-09-27T21:54:28.932Z,2.87
2018-09-27T21:56:59.696Z,3.03
2018-09-27T21:59:30.642Z,3.00
2018-09-27T22:02:01.582Z,2.33
2018-09-27T22:04:32.419Z,2.83
2018-09-27T22:07:03.728Z,2.80
2018-09-27T22:09:34.583Z,3.00
2018-09-27T22:12:05.493Z,2.23
2018-09-27T22:14:36.434Z,2.00
2018-09-27T22:17:07.877Z,2.60
2018-09-27T22:19:38.865Z,2.60
2018-09-27T22:22:09.590Z,2.60
2018-09-27T22:24:40.431Z,3.20
2018-09-27T22:27:11.428Z,3.07
2018-09-27T22:29:42.336Z,3.03
2018-09-27T22:32:13.046Z,2.63
2018-09-27T22:34:43.842Z,2.53
2018-09-27T22:37:15.051Z,2.67
2018-09-27T22:39:45.864Z,2.60
2018-09-27T22:42:16.799Z,2.80
2018-09-27T22:44:47.979Z,2.07
2018-09-27T22:47:18.849Z,2.77
2018-09-27T22:49:49.752Z,2.63
2018-09-27T22:52:20.428Z,2.63
2018-09-27T22:54:51.307Z,2.23
2018-09-27T22:57:22.356Z,2.60
2018-09-27T22:59:53.260Z,2.80
2018-09-27T23:02:23.960Z,2.70
2018-09-27T23:04:54.863Z,2.40
2018-09-27T23:07:25.978Z,2.50
2018-09-27T23:09:56.663Z,2.43
2018-09-27T23:12:27.593Z,2.47
2018-09-27T23:14:58.399Z,2.90
2018-09-27T23:17:29.152Z,2.60
2018-09-27T23:20:00.548Z,2.70
2018-09-27T23:22:31.533Z,2.37
2018-09-27T23:25:02.286Z,2.53
2018-09-27T23:27:33.083Z,2.40
2018-09-27T23:30:04.415Z,2.60
2018-09-27T23:32:35.453Z,2.90
2018-09-27T23:35:06.597Z,2.90
2018-09-27T23:37:37.547Z,2.77
2018-09-27T23:40:08.760Z,2.63
2018-09-27T23:42:39.489Z,2.93
2018-09-27T23:45:10.320Z,2.87
2018-09-27T23:47:41.202Z,2.70
2018-09-27T23:50:12.030Z,3.13
2018-09-27T23:52:42.684Z,2.53
2018-09-27T23:55:13.732Z,2.60
2018-09-27T23:57:45.428Z,2.70
